createdAt,value
2023-05-03T00:01:13.412Z,10.97
2023-05-03T00:03:43.129Z,10.96
2023-05-03T00:06:15.498Z,10.90
2023-05-03T00:08:45.475Z,10.92
2023-05-03T00:11:15.684Z,10.92
2023-05-03T00:13:46.031Z,10.88
2023-05-03T00:16:15.999Z,10.88
2023-05-03T00:18:47.740Z,10.87
2023-05-03T00:21:18.839Z,10.86
2023-05-03T00:23:48.643Z,10.86
2023-05-03T00:26:19.585Z,10.87
2023-05-03T00:28:51.253Z,10.87
2023-05-03T00:31:24.395Z,10.89
2023-05-03T00:33:54.255Z,10.89
2023-05-03T00:36:24.836Z,10.88
2023-05-03T00:38:55.235Z,10.89
2023-05-03T00:41:25.736Z,10.89
2023-05-03T00:43:55.774Z,10.88
2023-05-03T00:46:26.188Z,10.86
2023-05-03T00:48:56.287Z,10.86
2023-05-03T00:51:28.103Z,10.85
2023-05-03T00:53:58.642Z,10.85
2023-05-03T00:56:31.098Z,10.85
2023-05-03T00:59:03.828Z,10.84
2023-05-03T01:01:34.270Z,10.84
2023-05-03T01:04:07.253Z,10.83
2023-05-03T01:06:44.870Z,10.84
2023-05-03T01:09:22.428Z,10.84
2023-05-03T01:12:01.286Z,10.84
2023-05-03T01:14:37.244Z,10.84
2023-05-03T01:17:12.387Z,10.84
2023-05-03T01:19:46.462Z,10.85
2023-05-03T01:22:27.124Z,10.84
2023-05-03T01:25:07.401Z,10.84
2023-05-03T01:27:37.834Z,10.83
2023-05-03T01:30:12.011Z,10.82
2023-05-03T01:32:51.081Z,10.83
2023-05-03T01:35:29.416Z,10.83
2023-05-03T01:38:00.439Z,10.83
2023-05-03T01:40:32.852Z,10.83
2023-05-03T01:43:04.784Z,10.84
2023-05-03T01:45:35.379Z,10.83
2023-05-03T01:48:12.271Z,10.81
2023-05-03T01:50:42.338Z,10.78
2023-05-03T01:53:15.501Z,10.76
2023-05-03T01:55:46.127Z,10.74
2023-05-03T01:58:16.333Z,10.73
2023-05-03T02:00:48.340Z,10.74
2023-05-03T02:03:18.952Z,10.75
2023-05-03T02:05:49.658Z,10.74
2023-05-03T02:08:22.540Z,10.74
2023-05-03T02:10:53.077Z,10.73
2023-05-03T02:13:23.240Z,10.75
2023-05-03T02:15:54.786Z,10.76
2023-05-03T02:18:27.229Z,10.78
2023-05-03T02:20:57.436Z,10.77
2023-05-03T02:23:27.751Z,10.77
2023-05-03T02:25:58.140Z,10.75
2023-05-03T02:28:29.070Z,10.76
2023-05-03T02:30:59.387Z,10.76
2023-05-03T02:33:29.439Z,10.76
2023-05-03T02:36:02.622Z,10.78
2023-05-03T02:38:33.086Z,10.78
2023-05-03T02:41:03.291Z,10.78
2023-05-03T02:43:33.601Z,10.78
2023-05-03T02:46:03.673Z,10.78
2023-05-03T02:48:33.967Z,10.78
2023-05-03T02:51:03.895Z,10.78
2023-05-03T02:53:33.845Z,10.78
2023-05-03T02:56:04.533Z,10.78
2023-05-03T02:58:34.823Z,10.80
2023-05-03T03:01:05.535Z,10.80
2023-05-03T03:03:35.485Z,10.79
2023-05-03T03:06:05.939Z,10.80
2023-05-03T03:08:37.637Z,10.77
2023-05-03T03:11:08.594Z,10.76
2023-05-03T03:13:40.893Z,10.76
2023-05-03T03:16:13.974Z,10.73
2023-05-03T03:18:43.954Z,10.76
2023-05-03T03:21:13.914Z,10.73
2023-05-03T03:23:44.622Z,10.72
2023-05-03T03:26:14.682Z,10.73
2023-05-03T03:28:45.583Z,10.71
2023-05-03T03:31:17.888Z,10.70
2023-05-03T03:33:48.376Z,10.69
2023-05-03T03:36:18.753Z,10.67
2023-05-03T03:38:49.219Z,10.66
2023-05-03T03:41:19.908Z,10.65
2023-05-03T03:43:50.400Z,10.67
2023-05-03T03:46:21.550Z,10.67
2023-05-03T03:48:52.427Z,10.67
2023-05-03T03:51:23.604Z,10.65
2023-05-03T03:53:54.602Z,10.62
2023-05-03T03:56:26.141Z,10.59
2023-05-03T03:58:56.677Z,10.57
2023-05-03T04:01:27.917Z,10.59
2023-05-03T04:03:58.994Z,10.59
2023-05-03T04:06:29.270Z,10.57
2023-05-03T04:08:59.506Z,10.58
2023-05-03T04:11:29.646Z,10.56
2023-05-03T04:14:02.690Z,10.51
2023-05-03T04:16:33.350Z,10.52
2023-05-03T04:19:04.999Z,10.50
2023-05-03T04:21:36.757Z,10.47
2023-05-03T04:24:09.626Z,10.46
2023-05-03T04:26:42.637Z,10.44
2023-05-03T04:29:19.757Z,10.40
2023-05-03T04:31:49.898Z,10.37
2023-05-03T04:34:20.618Z,10.37
2023-05-03T04:36:51.842Z,10.39
2023-05-03T04:39:22.626Z,10.38
2023-05-03T04:41:52.928Z,10.38
2023-05-03T04:44:26.297Z,10.36
2023-05-03T04:46:57.626Z,10.34
2023-05-03T04:49:28.885Z,10.33
2023-05-03T04:51:59.916Z,10.32
2023-05-03T04:54:31.108Z,10.31
2023-05-03T04:57:01.410Z,10.30
2023-05-03T04:59:31.874Z,10.28
2023-05-03T05:02:02.018Z,10.26
2023-05-03T05:04:32.374Z,10.26
2023-05-03T05:07:04.423Z,10.26
2023-05-03T05:09:34.820Z,10.25
2023-05-03T05:12:05.631Z,10.22
2023-05-03T05:14:39.453Z,10.24
2023-05-03T05:17:13.823Z,10.23
2023-05-03T05:19:44.554Z,10.26
2023-05-03T05:22:14.937Z,10.26
2023-05-03T05:24:49.542Z,10.27
2023-05-03T05:27:20.091Z,10.30
2023-05-03T05:29:53.134Z,10.32
2023-05-03T05:32:23.344Z,10.34
2023-05-03T05:34:55.066Z,10.35
2023-05-03T05:37:27.350Z,10.35
2023-05-03T05:39:59.025Z,10.36
2023-05-03T05:42:30.323Z,10.36
2023-05-03T05:45:00.541Z,10.37
2023-05-03T05:47:30.841Z,10.38
2023-05-03T05:50:01.724Z,10.39
2023-05-03T05:52:33.894Z,10.38
2023-05-03T05:55:04.793Z,10.40
2023-05-03T05:57:35.233Z,10.40
2023-05-03T06:00:14.282Z,10.40
2023-05-03T06:02:44.434Z,10.36
2023-05-03T06:05:19.128Z,10.38
2023-05-03T06:07:50.389Z,10.44
2023-05-03T06:10:21.550Z,10.48
2023-05-03T06:12:53.607Z,10.50
2023-05-03T06:15:27.020Z,10.44
2023-05-03T06:17:57.101Z,10.46
2023-05-03T06:20:27.376Z,10.46
2023-05-03T06:22:57.818Z,10.50
2023-05-03T06:25:27.916Z,10.52
2023-05-03T06:27:57.921Z,10.55
2023-05-03T06:30:32.310Z,10.59
2023-05-03T06:33:08.653Z,10.61
2023-05-03T06:35:39.737Z,10.65
2023-05-03T06:38:11.677Z,10.67
2023-05-03T06:40:42.056Z,10.70
2023-05-03T06:43:15.020Z,10.70
2023-05-03T06:45:54.418Z,10.72
2023-05-03T06:48:24.819Z,10.76
2023-05-03T06:50:55.020Z,10.79
2023-05-03T06:53:25.148Z,10.78
2023-05-03T06:55:55.751Z,10.70
2023-05-03T06:58:25.729Z,10.71
2023-05-03T07:00:56.844Z,10.73
2023-05-03T07:03:27.012Z,10.73
2023-05-03T07:05:57.212Z,10.77
2023-05-03T07:08:27.731Z,10.81
2023-05-03T07:10:58.067Z,10.83
2023-05-03T07:13:28.109Z,10.85
2023-05-03T07:16:02.055Z,10.91
2023-05-03T07:18:33.865Z,10.93
2023-05-03T07:21:06.667Z,10.96
2023-05-03T07:23:37.886Z,10.96
2023-05-03T07:26:08.435Z,10.98
2023-05-03T07:28:38.318Z,11.02
2023-05-03T07:31:08.884Z,10.99
2023-05-03T07:33:40.150Z,11.01
2023-05-03T07:36:11.292Z,11.04
2023-05-03T07:38:41.166Z,11.06
2023-05-03T07:41:16.306Z,11.09
2023-05-03T07:43:46.511Z,11.09
2023-05-03T07:46:16.657Z,11.15
2023-05-03T07:48:47.274Z,11.15
2023-05-03T07:51:17.586Z,11.20
2023-05-03T07:53:47.546Z,11.24
2023-05-03T07:56:17.634Z,11.27
2023-05-03T07:58:50.998Z,11.33
2023-05-03T08:01:32.614Z,11.35
2023-05-03T08:04:02.949Z,11.36
2023-05-03T08:06:35.180Z,11.36
2023-05-03T08:09:05.931Z,11.39
2023-05-03T08:11:36.576Z,11.44
2023-05-03T08:14:06.444Z,11.49
2023-05-03T08:16:36.664Z,11.50
2023-05-03T08:19:07.687Z,11.54
2023-05-03T08:21:38.182Z,11.57
2023-05-03T08:24:16.104Z,11.60
2023-05-03T08:26:47.977Z,11.61
2023-05-03T08:29:18.073Z,11.65
2023-05-03T08:31:48.196Z,11.69
2023-05-03T08:34:18.752Z,11.76
2023-05-03T08:36:53.302Z,11.85
2023-05-03T08:39:26.432Z,11.94
2023-05-03T08:41:56.833Z,12.02
2023-05-03T08:44:31.384Z,12.11
2023-05-03T08:47:04.108Z,12.19
2023-05-03T08:49:34.945Z,12.26
2023-05-03T08:52:07.383Z,12.32
2023-05-03T08:54:37.394Z,12.40
2023-05-03T08:57:16.040Z,12.43
2023-05-03T08:59:50.688Z,12.40
2023-05-03T09:02:22.207Z,12.34
2023-05-03T09:04:59.430Z,12.31
2023-05-03T09:07:31.025Z,12.22
2023-05-03T09:10:01.957Z,12.36
2023-05-03T09:12:40.999Z,12.42
2023-05-03T09:15:23.071Z,12.43
2023-05-03T09:18:09.836Z,12.49
2023-05-03T09:20:42.213Z,12.50
2023-05-03T09:23:13.201Z,12.54
2023-05-03T09:25:48.054Z,12.53
2023-05-03T09:28:19.860Z,12.56
2023-05-03T09:30:50.948Z,12.62
2023-05-03T09:33:30.659Z,12.64
2023-05-03T09:36:02.224Z,12.66
2023-05-03T09:38:34.541Z,12.74
2023-05-03T09:41:06.291Z,12.78
2023-05-03T09:43:37.121Z,12.77
2023-05-03T09:46:12.191Z,12.75
2023-05-03T09:48:42.463Z,12.70
2023-05-03T09:51:13.299Z,12.63
2023-05-03T09:53:45.400Z,12.61
2023-05-03T09:56:15.948Z,12.56
2023-05-03T09:58:46.726Z,12.58
2023-05-03T10:01:17.591Z,12.54
2023-05-03T10:03:50.204Z,12.55
2023-05-03T10:06:26.915Z,12.55
2023-05-03T10:09:05.461Z,12.56
2023-05-03T10:11:36.950Z,12.60
2023-05-03T10:14:07.929Z,12.63
2023-05-03T10:16:41.414Z,12.60
2023-05-03T10:19:14.990Z,12.57
2023-05-03T10:22:02.938Z,12.57
2023-05-03T10:24:33.880Z,12.57
2023-05-03T10:27:07.466Z,12.56
2023-05-03T10:30:04.019Z,12.48
2023-05-03T10:32:40.475Z,12.45
2023-05-03T10:35:14.085Z,12.44
2023-05-03T10:37:43.549Z,12.43
2023-05-03T10:40:16.518Z,12.34
2023-05-03T10:42:50.438Z,12.38
2023-05-03T10:45:26.027Z,12.39
2023-05-03T10:48:22.623Z,12.43
2023-05-03T10:50:52.886Z,12.48
2023-05-03T10:53:40.902Z,12.44
2023-05-03T10:56:12.302Z,12.45
2023-05-03T10:58:45.280Z,12.45
2023-05-03T11:01:17.345Z,12.45
2023-05-03T11:03:52.298Z,12.42
2023-05-03T11:06:33.413Z,12.41
2023-05-03T11:09:05.832Z,12.43
2023-05-03T11:11:38.814Z,12.49
2023-05-03T11:14:09.579Z,12.56
2023-05-03T11:16:46.960Z,12.64
2023-05-03T11:19:17.553Z,12.70
2023-05-03T11:21:48.486Z,12.77
2023-05-03T11:24:18.723Z,12.76
2023-05-03T11:26:49.198Z,12.83
2023-05-03T11:29:20.804Z,12.90
2023-05-03T11:31:52.132Z,13.00
2023-05-03T11:34:22.250Z,13.03
2023-05-03T11:36:52.264Z,12.98
2023-05-03T11:39:22.513Z,13.02
2023-05-03T11:42:06.054Z,13.03
2023-05-03T11:44:37.332Z,12.98
2023-05-03T11:47:09.213Z,12.94
2023-05-03T11:49:39.333Z,12.76
2023-05-03T11:52:09.671Z,12.76
2023-05-03T11:54:40.723Z,12.77
2023-05-03T11:57:15.783Z,12.74
2023-05-03T11:59:45.849Z,12.71
2023-05-03T12:02:16.730Z,12.73
2023-05-03T12:04:47.566Z,12.77
2023-05-03T12:07:21.635Z,12.70
2023-05-03T12:10:09.455Z,12.71
2023-05-03T12:12:54.243Z,12.71
2023-05-03T12:15:36.862Z,12.69
2023-05-03T12:18:09.608Z,12.59
2023-05-03T12:23:16.288Z,12.63
2023-05-03T12:25:49.304Z,12.56
2023-05-03T12:28:21.408Z,12.55
2023-05-03T12:30:53.279Z,12.56
2023-05-03T12:33:23.997Z,12.52
2023-05-03T12:35:54.684Z,12.52
2023-05-03T12:38:25.603Z,12.52
2023-05-03T12:40:55.873Z,12.46
2023-05-03T12:43:26.466Z,12.39
2023-05-03T12:48:37.464Z,12.37
2023-05-03T12:51:19.503Z,12.31
2023-05-03T12:53:55.544Z,12.26
2023-05-03T12:56:26.275Z,12.26
2023-05-03T13:04:36.420Z,12.17
2023-05-03T13:06:58.725Z,12.07
2023-05-03T13:09:38.804Z,12.08
2023-05-03T13:12:21.555Z,12.08
2023-05-03T13:14:56.075Z,12.12
2023-05-03T13:17:26.333Z,12.15
2023-05-03T13:19:58.271Z,12.14
2023-05-03T13:22:28.463Z,12.16
2023-05-03T13:24:59.055Z,12.14
2023-05-03T13:27:29.133Z,12.13
2023-05-03T13:30:01.613Z,12.12
2023-05-03T13:32:33.012Z,12.13
2023-05-03T13:35:05.055Z,12.11
2023-05-03T13:37:35.156Z,11.94
2023-05-03T13:40:07.384Z,11.90
2023-05-03T13:42:37.613Z,11.96
2023-05-03T13:45:09.999Z,11.99
2023-05-03T13:48:05.167Z,11.98
2023-05-03T13:50:31.850Z,12.00
2023-05-03T13:53:02.778Z,12.03
2023-05-03T13:55:32.977Z,12.08
2023-05-03T13:58:03.591Z,12.14
2023-05-03T14:00:33.854Z,12.11
2023-05-03T14:03:06.291Z,12.10
2023-05-03T14:05:37.075Z,12.10
2023-05-03T14:08:07.280Z,12.14
2023-05-03T14:10:37.509Z,12.10
2023-05-03T14:13:07.931Z,12.05
2023-05-03T14:15:42.170Z,12.14
2023-05-03T14:18:15.246Z,12.22
2023-05-03T14:20:45.213Z,12.25
2023-05-03T14:23:15.142Z,12.29
2023-05-03T14:25:45.094Z,12.33
2023-05-03T14:28:15.290Z,12.37
2023-05-03T14:30:45.444Z,12.37
2023-05-03T14:33:15.830Z,12.38
2023-05-03T14:35:45.822Z,12.41
2023-05-03T14:38:15.811Z,12.41
2023-05-03T14:40:46.025Z,12.46
2023-05-03T14:43:16.083Z,12.50
2023-05-03T14:45:46.668Z,12.55
2023-05-03T14:48:17.213Z,12.54
2023-05-03T14:50:50.361Z,12.53
2023-05-03T14:53:21.405Z,12.55
2023-05-03T14:55:53.016Z,12.47
2023-05-03T14:58:23.286Z,12.50
2023-05-03T15:00:56.890Z,12.53
2023-05-03T15:03:27.569Z,12.56
2023-05-03T15:05:57.527Z,12.55
2023-05-03T15:08:29.707Z,12.50
2023-05-03T15:10:59.757Z,12.52
2023-05-03T15:13:30.388Z,12.56
2023-05-03T15:16:00.555Z,12.59
2023-05-03T15:18:30.674Z,12.59
2023-05-03T15:21:03.502Z,12.61
2023-05-03T15:23:34.901Z,12.58
2023-05-03T15:26:05.231Z,12.50
2023-05-03T15:28:35.980Z,12.55
2023-05-03T15:31:07.104Z,12.59
2023-05-03T15:33:41.775Z,12.62
2023-05-03T15:36:16.833Z,12.65
2023-05-03T15:38:48.237Z,12.65
2023-05-03T15:41:19.169Z,12.59
2023-05-03T15:43:49.264Z,12.55
2023-05-03T15:46:19.324Z,12.56
2023-05-03T15:48:55.610Z,12.53
2023-05-03T15:51:27.641Z,12.45
2023-05-03T15:53:59.937Z,12.47
2023-05-03T15:56:31.144Z,12.48
2023-05-03T15:59:01.845Z,12.53
2023-05-03T16:01:32.390Z,12.57
2023-05-03T16:04:02.362Z,12.57
2023-05-03T16:06:33.780Z,12.58
2023-05-03T16:09:04.627Z,12.58
2023-05-03T16:11:35.464Z,12.61
2023-05-03T16:14:09.009Z,12.61
2023-05-03T16:16:51.631Z,12.64
2023-05-03T16:19:27.128Z,12.64
2023-05-03T16:21:57.583Z,12.63
2023-05-03T16:24:28.181Z,12.64
2023-05-03T16:26:58.480Z,12.58
2023-05-03T16:29:29.830Z,12.51
2023-05-03T16:32:00.483Z,12.45
2023-05-03T16:34:31.138Z,12.47
2023-05-03T16:37:03.826Z,12.47
2023-05-03T16:39:33.938Z,12.45
2023-05-03T16:42:04.105Z,12.42
2023-05-03T16:44:34.314Z,12.42
2023-05-03T16:47:06.205Z,12.40
2023-05-03T16:49:36.177Z,12.38
2023-05-03T16:52:06.592Z,12.36
2023-05-03T16:54:37.557Z,12.39
2023-05-03T16:57:07.637Z,12.43
2023-05-03T16:59:37.647Z,12.42
2023-05-03T17:02:08.236Z,12.43
2023-05-03T17:04:38.274Z,12.43
2023-05-03T17:07:16.724Z,12.43
2023-05-03T17:09:48.905Z,12.43
2023-05-03T17:12:21.747Z,12.41
2023-05-03T17:14:53.365Z,12.36
2023-05-03T17:17:37.560Z,12.34
2023-05-03T17:20:10.470Z,12.34
2023-05-03T17:22:41.535Z,12.33
2023-05-03T17:25:13.046Z,12.27
2023-05-03T17:27:45.052Z,12.18
2023-05-03T17:30:20.393Z,12.16
2023-05-03T17:32:51.947Z,12.13
2023-05-03T17:35:22.482Z,12.14
2023-05-03T17:37:53.574Z,12.11
2023-05-03T17:40:24.519Z,12.08
2023-05-03T17:42:54.963Z,12.09
2023-05-03T17:45:28.730Z,12.11
2023-05-03T17:47:59.386Z,12.10
2023-05-03T17:50:33.884Z,12.06
2023-05-03T17:53:07.588Z,11.91
2023-05-03T17:55:40.437Z,11.80
2023-05-03T17:58:13.234Z,11.71
2023-05-03T18:00:45.614Z,11.72
2023-05-03T18:03:16.737Z,11.71
2023-05-03T18:05:49.060Z,11.70
2023-05-03T18:08:21.257Z,11.69
2023-05-03T18:10:51.644Z,11.69
2023-05-03T18:13:23.841Z,11.71
2023-05-03T18:15:53.623Z,11.70
2023-05-03T18:18:25.594Z,11.66
2023-05-03T18:21:04.311Z,11.65
2023-05-03T18:23:35.487Z,11.62
2023-05-03T18:26:07.321Z,11.57
2023-05-03T18:28:39.622Z,11.48
2023-05-03T18:31:13.238Z,11.34
2023-05-03T18:33:50.050Z,11.19
2023-05-03T18:36:24.194Z,11.02
2023-05-03T18:38:58.064Z,10.91
2023-05-03T18:41:28.947Z,10.86
2023-05-03T18:43:59.679Z,10.82
2023-05-03T18:46:32.574Z,10.73
2023-05-03T18:49:04.239Z,10.67
2023-05-03T18:51:37.943Z,10.67
2023-05-03T18:54:08.105Z,10.66
2023-05-03T18:56:45.054Z,10.56
2023-05-03T18:59:15.453Z,10.49
2023-05-03T19:01:46.591Z,10.48
2023-05-03T19:04:17.134Z,10.51
2023-05-03T19:06:47.559Z,10.56
2023-05-03T19:09:18.480Z,10.59
2023-05-03T19:11:48.878Z,10.56
2023-05-03T19:14:19.026Z,10.49
2023-05-03T19:16:55.582Z,10.53
2023-05-03T19:19:25.889Z,10.54
2023-05-03T19:21:59.073Z,10.51
2023-05-03T19:24:30.058Z,10.49
2023-05-03T19:27:00.025Z,10.45
2023-05-03T19:29:30.451Z,10.41
2023-05-03T19:32:02.302Z,10.37
2023-05-03T19:34:35.908Z,10.32
2023-05-03T19:37:06.398Z,10.30
2023-05-03T19:39:37.381Z,10.26
2023-05-03T19:42:08.670Z,10.23
2023-05-03T19:44:38.856Z,10.23
2023-05-03T19:47:08.920Z,10.26
2023-05-03T19:49:39.039Z,10.28
2023-05-03T19:52:08.934Z,10.28
2023-05-03T19:54:39.047Z,10.26
2023-05-03T19:57:09.236Z,10.11
2023-05-03T19:59:39.792Z,10.05
2023-05-03T20:02:25.243Z,9.94
2023-05-03T20:04:56.040Z,9.92
2023-05-03T20:07:26.408Z,9.90
2023-05-03T20:09:56.519Z,9.90
2023-05-03T20:12:28.782Z,9.88
2023-05-03T20:14:59.379Z,9.85
2023-05-03T20:17:29.310Z,9.83
2023-05-03T20:20:06.258Z,9.81
2023-05-03T20:22:36.752Z,9.77
2023-05-03T20:25:09.338Z,9.69
2023-05-03T20:27:39.622Z,9.63
2023-05-03T20:30:11.497Z,9.55
2023-05-03T20:32:45.088Z,9.53
2023-05-03T20:35:16.021Z,9.50
2023-05-03T20:37:46.307Z,9.40
2023-05-03T20:40:16.720Z,9.28
2023-05-03T20:42:46.626Z,9.24
2023-05-03T20:45:16.839Z,9.23
2023-05-03T20:47:46.805Z,9.23
2023-05-03T20:50:16.889Z,9.23
2023-05-03T20:52:47.456Z,9.16
2023-05-03T20:55:17.797Z,9.04
2023-05-03T20:57:47.752Z,8.88
2023-05-03T21:00:18.455Z,8.73
2023-05-03T21:02:52.831Z,8.62
2023-05-03T21:05:23.265Z,8.57
2023-05-03T21:07:53.178Z,8.51
2023-05-03T21:10:23.491Z,8.44
2023-05-03T21:12:53.542Z,8.37
2023-05-03T21:15:23.451Z,8.30
2023-05-03T21:17:53.595Z,8.27
2023-05-03T21:20:23.804Z,8.24
2023-05-03T21:22:54.014Z,8.18
2023-05-03T21:25:24.617Z,8.15
2023-05-03T21:27:54.544Z,8.12
2023-05-03T21:30:25.301Z,8.12
2023-05-03T21:32:55.222Z,8.12
2023-05-03T21:35:26.217Z,8.09
2023-05-03T21:37:56.145Z,8.01
2023-05-03T21:40:26.575Z,7.94
2023-05-03T21:42:56.566Z,7.85
2023-05-03T21:45:26.573Z,7.77
2023-05-03T21:47:56.684Z,7.69
2023-05-03T21:50:26.919Z,7.62
2023-05-03T21:52:56.865Z,7.59
2023-05-03T21:55:27.053Z,7.54
2023-05-03T21:57:57.011Z,7.53
2023-05-03T22:00:26.995Z,7.50
2023-05-03T22:02:57.111Z,7.44
2023-05-03T22:05:27.153Z,7.37
2023-05-03T22:07:57.127Z,7.30
2023-05-03T22:10:27.079Z,7.23
2023-05-03T22:12:57.380Z,7.20
2023-05-03T22:15:27.518Z,7.19
2023-05-03T22:17:58.368Z,7.18
2023-05-03T22:20:29.660Z,7.21
2023-05-03T22:22:59.771Z,7.24
2023-05-03T22:25:32.349Z,7.22
2023-05-03T22:28:02.307Z,7.18
2023-05-03T22:30:32.865Z,7.11
2023-05-03T22:33:02.577Z,7.12
2023-05-03T22:35:32.485Z,7.13
2023-05-03T22:38:03.262Z,7.09
2023-05-03T22:40:33.489Z,6.98
2023-05-03T22:43:03.612Z,6.86
2023-05-03T22:45:34.127Z,6.71
2023-05-03T22:48:04.212Z,6.58
2023-05-03T22:50:34.634Z,6.53
2023-05-03T22:53:04.541Z,6.42
2023-05-03T22:55:35.072Z,6.36
2023-05-03T22:58:04.984Z,6.37
2023-05-03T23:00:35.063Z,6.40
2023-05-03T23:03:04.962Z,6.43
2023-05-03T23:05:35.862Z,6.46
2023-05-03T23:08:06.504Z,6.49
2023-05-03T23:10:36.367Z,6.47
2023-05-03T23:13:06.748Z,6.42
2023-05-03T23:15:37.381Z,6.42
2023-05-03T23:18:07.991Z,6.41
2023-05-03T23:20:38.152Z,6.40
2023-05-03T23:23:07.887Z,6.41
2023-05-03T23:25:37.975Z,6.41
2023-05-03T23:28:08.116Z,6.37
2023-05-03T23:30:42.076Z,6.36
2023-05-03T23:33:13.012Z,6.35
2023-05-03T23:35:43.365Z,6.33
2023-05-03T23:38:14.143Z,6.29
2023-05-03T23:40:44.165Z,6.25
2023-05-03T23:43:14.519Z,6.21
2023-05-03T23:45:44.539Z,6.18
2023-05-03T23:48:14.699Z,6.16
2023-05-03T23:50:44.517Z,6.11
2023-05-03T23:53:14.700Z,6.09
2023-05-03T23:55:44.456Z,6.09
2023-05-03T23:58:14.343Z,6.10
